Manderson, Wyoming
Current Conditions -  °F | °C
As of 10:53 PM on Thursday 27 Nov 2014 (Local Time) from KGEY Reporting Station
Clear Clear  
Wind Chill: 12°   Ceiling: Unl
Heat Index: 22°   Visibility: 10mi
Dew Point: 21°   Wind: 9mph
Humidity: 96%   Direction: 110°ESE
Pressure: 29.88"   Gusts: NA
Location:  44.27°N, 107.96°W
Report Text: KGEY 280553Z AUTO 11008KT 10SM CLR M06/M06 A2988 RMK AO2 SLP161 T10561061 11022 21072 58015
Loading
Personal Weather Stations






























Interactive Weather Map New forecast layout! Learn more

10-Day Weather Forecast

Advertisements
Track Severe Weather on mobile